sensor_id;sensor_type;location;lat;lon;timestamp;P1;durP1;ratioP1;P2;durP2;ratioP2
57826;SDS011;43656;57.746;11.780;2023-04-09T00:00:21;3.35;;;2.47;;
57826;SDS011;43656;57.746;11.780;2023-04-09T00:02:46;5.30;;;2.00;;
57826;SDS011;43656;57.746;11.780;2023-04-09T00:05:12;3.15;;;2.13;;
57826;SDS011;43656;57.746;11.780;2023-04-09T00:07:38;5.13;;;2.42;;
57826;SDS011;43656;57.746;11.780;2023-04-09T00:10:03;3.35;;;2.00;;
57826;SDS011;43656;57.746;11.780;2023-04-09T00:12:30;2.88;;;1.83;;
57826;SDS011;43656;57.746;11.780;2023-04-09T00:14:55;3.05;;;1.90;;
57826;SDS011;43656;57.746;11.780;2023-04-09T00:17:21;4.35;;;2.15;;
57826;SDS011;43656;57.746;11.780;2023-04-09T00:19:47;3.58;;;2.03;;
57826;SDS011;43656;57.746;11.780;2023-04-09T00:22:12;3.22;;;2.05;;
57826;SDS011;43656;57.746;11.780;2023-04-09T00:24:38;4.40;;;2.05;;
57826;SDS011;43656;57.746;11.780;2023-04-09T00:27:04;2.97;;;2.15;;
57826;SDS011;43656;57.746;11.780;2023-04-09T00:29:29;4.63;;;2.00;;
57826;SDS011;43656;57.746;11.780;2023-04-09T00:31:55;4.30;;;2.00;;
57826;SDS011;43656;57.746;11.780;2023-04-09T00:34:20;3.55;;;2.00;;
57826;SDS011;43656;57.746;11.780;2023-04-09T00:36:46;4.35;;;2.22;;
57826;SDS011;43656;57.746;11.780;2023-04-09T00:39:11;3.65;;;2.00;;
57826;SDS011;43656;57.746;11.780;2023-04-09T00:41:37;2.28;;;1.90;;
57826;SDS011;43656;57.746;11.780;2023-04-09T00:44:02;5.63;;;2.28;;
57826;SDS011;43656;57.746;11.780;2023-04-09T00:46:27;2.28;;;1.90;;
57826;SDS011;43656;57.746;11.780;2023-04-09T00:48:53;2.78;;;2.10;;
57826;SDS011;43656;57.746;11.780;2023-04-09T00:51:18;3.17;;;1.95;;
57826;SDS011;43656;57.746;11.780;2023-04-09T00:53:44;4.50;;;2.00;;
57826;SDS011;43656;57.746;11.780;2023-04-09T00:56:11;4.28;;;2.33;;
57826;SDS011;43656;57.746;11.780;2023-04-09T00:58:39;3.42;;;2.03;;
57826;SDS011;43656;57.746;11.780;2023-04-09T01:01:05;2.45;;;1.80;;
57826;SDS011;43656;57.746;11.780;2023-04-09T01:03:31;3.08;;;2.03;;
57826;SDS011;43656;57.746;11.780;2023-04-09T01:06:03;2.95;;;2.25;;
57826;SDS011;43656;57.746;11.780;2023-04-09T01:14:05;3.55;;;2.10;;
57826;SDS011;43656;57.746;11.780;2023-04-09T01:16:36;3.30;;;2.20;;
57826;SDS011;43656;57.746;11.780;2023-04-09T01:19:14;3.30;;;2.08;;
57826;SDS011;43656;57.746;11.780;2023-04-09T01:21:53;4.82;;;2.53;;
57826;SDS011;43656;57.746;11.780;2023-04-09T01:24:46;4.32;;;2.10;;
57826;SDS011;43656;57.746;11.780;2023-04-09T01:27:29;3.72;;;2.10;;
57826;SDS011;43656;57.746;11.780;2023-04-09T01:30:03;5.53;;;2.00;;
57826;SDS011;43656;57.746;11.780;2023-04-09T01:32:30;4.68;;;1.88;;
57826;SDS011;43656;57.746;11.780;2023-04-09T01:34:59;3.60;;;1.95;;
57826;SDS011;43656;57.746;11.780;2023-04-09T01:37:26;3.15;;;2.00;;
57826;SDS011;43656;57.746;11.780;2023-04-09T01:39:52;6.10;;;2.13;;
57826;SDS011;43656;57.746;11.780;2023-04-09T01:42:17;5.22;;;2.67;;
57826;SDS011;43656;57.746;11.780;2023-04-09T01:44:44;5.00;;;2.22;;
57826;SDS011;43656;57.746;11.780;2023-04-09T01:47:10;3.60;;;2.33;;
57826;SDS011;43656;57.746;11.780;2023-04-09T01:49:37;4.05;;;2.55;;
57826;SDS011;43656;57.746;11.780;2023-04-09T01:52:05;4.53;;;2.40;;
57826;SDS011;43656;57.746;11.780;2023-04-09T01:54:31;4.88;;;2.42;;
57826;SDS011;43656;57.746;11.780;2023-04-09T01:56:57;3.83;;;2.10;;
57826;SDS011;43656;57.746;11.780;2023-04-09T01:59:22;4.15;;;2.40;;
57826;SDS011;43656;57.746;11.780;2023-04-09T02:01:57;2.88;;;1.90;;
57826;SDS011;43656;57.746;11.780;2023-04-09T02:04:26;4.22;;;2.17;;
57826;SDS011;43656;57.746;11.780;2023-04-09T02:06:58;4.47;;;2.20;;
57826;SDS011;43656;57.746;11.780;2023-04-09T02:09:28;3.45;;;2.20;;
57826;SDS011;43656;57.746;11.780;2023-04-09T02:12:02;4.80;;;2.10;;
57826;SDS011;43656;57.746;11.780;2023-04-09T02:14:29;3.70;;;2.15;;
57826;SDS011;43656;57.746;11.780;2023-04-09T02:16:59;3.50;;;2.05;;
57826;SDS011;43656;57.746;11.780;2023-04-09T02:19:36;3.17;;;2.08;;
57826;SDS011;43656;57.746;11.780;2023-04-09T02:22:03;3.58;;;2.20;;
57826;SDS011;43656;57.746;11.780;2023-04-09T02:24:29;3.05;;;1.95;;
57826;SDS011;43656;57.746;11.780;2023-04-09T02:26:54;4.05;;;2.13;;
57826;SDS011;43656;57.746;11.780;2023-04-09T02:29:19;4.78;;;2.20;;
57826;SDS011;43656;57.746;11.780;2023-04-09T02:31:45;4.18;;;2.33;;
57826;SDS011;43656;57.746;11.780;2023-04-09T02:34:10;3.47;;;2.38;;
57826;SDS011;43656;57.746;11.780;2023-04-09T02:36:35;4.20;;;2.25;;
57826;SDS011;43656;57.746;11.780;2023-04-09T02:39:01;3.60;;;2.13;;
57826;SDS011;43656;57.746;11.780;2023-04-09T02:41:26;2.85;;;1.85;;
57826;SDS011;43656;57.746;11.780;2023-04-09T02:43:52;3.42;;;2.05;;
57826;SDS011;43656;57.746;11.780;2023-04-09T02:46:17;4.80;;;2.13;;
57826;SDS011;43656;57.746;11.780;2023-04-09T02:48:42;4.00;;;2.20;;
57826;SDS011;43656;57.746;11.780;2023-04-09T02:51:08;3.80;;;2.05;;
57826;SDS011;43656;57.746;11.780;2023-04-09T02:53:33;3.45;;;2.10;;
57826;SDS011;43656;57.746;11.780;2023-04-09T02:55:58;4.00;;;2.08;;
57826;SDS011;43656;57.746;11.780;2023-04-09T02:58:24;2.70;;;2.03;;
57826;SDS011;43656;57.746;11.780;2023-04-09T03:00:49;4.85;;;2.40;;
57826;SDS011;43656;57.746;11.780;2023-04-09T03:03:15;3.58;;;1.98;;
57826;SDS011;43656;57.746;11.780;2023-04-09T03:05:40;2.97;;;1.92;;
57826;SDS011;43656;57.746;11.780;2023-04-09T03:08:05;3.72;;;1.95;;
57826;SDS011;43656;57.746;11.780;2023-04-09T03:10:31;3.58;;;2.17;;
57826;SDS011;43656;57.746;11.780;2023-04-09T03:12:56;2.70;;;1.88;;
57826;SDS011;43656;57.746;11.780;2023-04-09T03:15:21;3.53;;;2.33;;
57826;SDS011;43656;57.746;11.780;2023-04-09T03:17:47;3.22;;;2.17;;
57826;SDS011;43656;57.746;11.780;2023-04-09T03:20:12;2.80;;;2.03;;
57826;SDS011;43656;57.746;11.780;2023-04-09T03:22:38;3.95;;;1.90;;
57826;SDS011;43656;57.746;11.780;2023-04-09T03:25:05;3.60;;;1.90;;
57826;SDS011;43656;57.746;11.780;2023-04-09T03:27:31;4.28;;;2.10;;
57826;SDS011;43656;57.746;11.780;2023-04-09T03:29:57;4.68;;;2.17;;
57826;SDS011;43656;57.746;11.780;2023-04-09T03:32:22;6.28;;;2.05;;
57826;SDS011;43656;57.746;11.780;2023-04-09T03:34:47;4.53;;;1.88;;
57826;SDS011;43656;57.746;11.780;2023-04-09T03:37:13;3.40;;;1.90;;
57826;SDS011;43656;57.746;11.780;2023-04-09T03:39:38;3.28;;;1.90;;
57826;SDS011;43656;57.746;11.780;2023-04-09T03:42:04;3.40;;;2.28;;
57826;SDS011;43656;57.746;11.780;2023-04-09T03:44:29;3.40;;;2.05;;
57826;SDS011;43656;57.746;11.780;2023-04-09T03:46:55;4.00;;;2.00;;
57826;SDS011;43656;57.746;11.780;2023-04-09T03:49:20;2.83;;;2.00;;
57826;SDS011;43656;57.746;11.780;2023-04-09T03:51:46;5.90;;;2.25;;
57826;SDS011;43656;57.746;11.780;2023-04-09T03:54:11;4.57;;;1.88;;
57826;SDS011;43656;57.746;11.780;2023-04-09T03:56:37;3.08;;;1.88;;
57826;SDS011;43656;57.746;11.780;2023-04-09T03:59:02;3.20;;;1.77;;
57826;SDS011;43656;57.746;11.780;2023-04-09T04:01:28;3.17;;;1.73;;
57826;SDS011;43656;57.746;11.780;2023-04-09T04:03:53;4.85;;;2.13;;
57826;SDS011;43656;57.746;11.780;2023-04-09T04:06:18;6.32;;;2.72;;
57826;SDS011;43656;57.746;11.780;2023-04-09T04:08:44;3.83;;;1.77;;
57826;SDS011;43656;57.746;11.780;2023-04-09T04:11:09;3.40;;;2.15;;
57826;SDS011;43656;57.746;11.780;2023-04-09T04:13:35;3.63;;;1.90;;
57826;SDS011;43656;57.746;11.780;2023-04-09T04:16:00;2.80;;;2.10;;
57826;SDS011;43656;57.746;11.780;2023-04-09T04:18:26;2.95;;;1.77;;
57826;SDS011;43656;57.746;11.780;2023-04-09T04:20:51;3.80;;;1.88;;
57826;SDS011;43656;57.746;11.780;2023-04-09T04:23:17;3.30;;;1.80;;
57826;SDS011;43656;57.746;11.780;2023-04-09T04:25:42;3.00;;;1.88;;
57826;SDS011;43656;57.746;11.780;2023-04-09T04:28:08;2.55;;;1.98;;
57826;SDS011;43656;57.746;11.780;2023-04-09T04:30:33;3.17;;;2.20;;
57826;SDS011;43656;57.746;11.780;2023-04-09T04:32:59;2.95;;;1.95;;
57826;SDS011;43656;57.746;11.780;2023-04-09T04:35:24;3.90;;;1.90;;
57826;SDS011;43656;57.746;11.780;2023-04-09T04:37:50;2.40;;;1.60;;
57826;SDS011;43656;57.746;11.780;2023-04-09T04:40:15;3.42;;;1.70;;
57826;SDS011;43656;57.746;11.780;2023-04-09T04:42:41;3.17;;;2.05;;
57826;SDS011;43656;57.746;11.780;2023-04-09T04:45:07;4.18;;;1.92;;
57826;SDS011;43656;57.746;11.780;2023-04-09T04:47:33;3.42;;;1.90;;
57826;SDS011;43656;57.746;11.780;2023-04-09T04:49:58;2.65;;;1.52;;
57826;SDS011;43656;57.746;11.780;2023-04-09T04:52:24;6.07;;;1.77;;
57826;SDS011;43656;57.746;11.780;2023-04-09T04:54:49;4.05;;;1.60;;
57826;SDS011;43656;57.746;11.780;2023-04-09T04:57:14;2.83;;;1.73;;
57826;SDS011;43656;57.746;11.780;2023-04-09T04:59:40;3.25;;;1.75;;
57826;SDS011;43656;57.746;11.780;2023-04-09T05:02:06;3.45;;;1.90;;
57826;SDS011;43656;57.746;11.780;2023-04-09T05:04:31;3.00;;;1.98;;
57826;SDS011;43656;57.746;11.780;2023-04-09T05:06:57;4.30;;;1.88;;
57826;SDS011;43656;57.746;11.780;2023-04-09T05:09:22;3.20;;;2.10;;
57826;SDS011;43656;57.746;11.780;2023-04-09T05:11:48;3.67;;;1.85;;
57826;SDS011;43656;57.746;11.780;2023-04-09T05:14:13;3.15;;;1.70;;
57826;SDS011;43656;57.746;11.780;2023-04-09T05:16:39;3.28;;;2.03;;
57826;SDS011;43656;57.746;11.780;2023-04-09T05:19:04;2.80;;;1.58;;
57826;SDS011;43656;57.746;11.780;2023-04-09T05:21:30;2.58;;;1.58;;
57826;SDS011;43656;57.746;11.780;2023-04-09T05:23:55;3.30;;;1.70;;
57826;SDS011;43656;57.746;11.780;2023-04-09T05:26:21;3.03;;;1.73;;
57826;SDS011;43656;57.746;11.780;2023-04-09T05:28:47;3.35;;;1.83;;
57826;SDS011;43656;57.746;11.780;2023-04-09T05:31:12;1.90;;;1.55;;
57826;SDS011;43656;57.746;11.780;2023-04-09T05:33:39;3.08;;;1.73;;
57826;SDS011;43656;57.746;11.780;2023-04-09T05:36:05;2.47;;;1.58;;
57826;SDS011;43656;57.746;11.780;2023-04-09T05:38:31;2.75;;;1.48;;
57826;SDS011;43656;57.746;11.780;2023-04-09T05:40:56;3.58;;;1.85;;
57826;SDS011;43656;57.746;11.780;2023-04-09T05:43:22;3.35;;;1.80;;
57826;SDS011;43656;57.746;11.780;2023-04-09T05:45:47;3.17;;;1.65;;
57826;SDS011;43656;57.746;11.780;2023-04-09T05:48:13;3.20;;;1.73;;
57826;SDS011;43656;57.746;11.780;2023-04-09T05:50:39;3.33;;;1.85;;
57826;SDS011;43656;57.746;11.780;2023-04-09T05:53:04;2.28;;;1.52;;
57826;SDS011;43656;57.746;11.780;2023-04-09T05:55:30;2.83;;;1.90;;
57826;SDS011;43656;57.746;11.780;2023-04-09T05:57:56;1.92;;;1.17;;
57826;SDS011;43656;57.746;11.780;2023-04-09T06:00:22;2.85;;;1.58;;
57826;SDS011;43656;57.746;11.780;2023-04-09T06:02:48;2.53;;;1.60;;
57826;SDS011;43656;57.746;11.780;2023-04-09T06:05:13;2.50;;;1.48;;
57826;SDS011;43656;57.746;11.780;2023-04-09T06:07:39;2.42;;;1.38;;
57826;SDS011;43656;57.746;11.780;2023-04-09T06:10:05;2.25;;;1.25;;
57826;SDS011;43656;57.746;11.780;2023-04-09T06:12:32;1.73;;;1.30;;
57826;SDS011;43656;57.746;11.780;2023-04-09T06:14:58;2.45;;;1.30;;
57826;SDS011;43656;57.746;11.780;2023-04-09T06:17:24;3.25;;;1.38;;
57826;SDS011;43656;57.746;11.780;2023-04-09T06:19:49;2.03;;;1.23;;
57826;SDS011;43656;57.746;11.780;2023-04-09T06:22:15;2.15;;;1.15;;
57826;SDS011;43656;57.746;11.780;2023-04-09T06:24:40;2.15;;;1.25;;
57826;SDS011;43656;57.746;11.780;2023-04-09T06:27:05;2.17;;;1.30;;
57826;SDS011;43656;57.746;11.780;2023-04-09T06:29:31;2.03;;;1.25;;
57826;SDS011;43656;57.746;11.780;2023-04-09T06:31:57;3.38;;;1.40;;
57826;SDS011;43656;57.746;11.780;2023-04-09T06:34:22;2.15;;;1.08;;
57826;SDS011;43656;57.746;11.780;2023-04-09T06:36:47;1.92;;;1.20;;
57826;SDS011;43656;57.746;11.780;2023-04-09T06:39:13;2.83;;;1.20;;
57826;SDS011;43656;57.746;11.780;2023-04-09T06:41:38;2.35;;;1.35;;
57826;SDS011;43656;57.746;11.780;2023-04-09T06:44:03;3.25;;;1.08;;
57826;SDS011;43656;57.746;11.780;2023-04-09T06:46:29;2.13;;;1.20;;
57826;SDS011;43656;57.746;11.780;2023-04-09T06:48:54;4.45;;;1.27;;
57826;SDS011;43656;57.746;11.780;2023-04-09T06:51:20;2.15;;;1.20;;
57826;SDS011;43656;57.746;11.780;2023-04-09T06:53:45;3.58;;;1.10;;
57826;SDS011;43656;57.746;11.780;2023-04-09T06:56:12;1.88;;;1.10;;
57826;SDS011;43656;57.746;11.780;2023-04-09T06:58:37;3.67;;;1.40;;
57826;SDS011;43656;57.746;11.780;2023-04-09T07:01:03;3.15;;;1.38;;
57826;SDS011;43656;57.746;11.780;2023-04-09T07:03:28;1.92;;;1.35;;
57826;SDS011;43656;57.746;11.780;2023-04-09T07:05:54;4.18;;;1.30;;
57826;SDS011;43656;57.746;11.780;2023-04-09T07:08:20;1.75;;;1.30;;
57826;SDS011;43656;57.746;11.780;2023-04-09T07:10:47;1.90;;;1.25;;
57826;SDS011;43656;57.746;11.780;2023-04-09T07:13:12;4.18;;;1.20;;
57826;SDS011;43656;57.746;11.780;2023-04-09T07:15:37;2.63;;;1.10;;
57826;SDS011;43656;57.746;11.780;2023-04-09T07:18:03;1.95;;;1.20;;
57826;SDS011;43656;57.746;11.780;2023-04-09T07:20:28;3.20;;;1.20;;
57826;SDS011;43656;57.746;11.780;2023-04-09T07:22:54;3.58;;;1.17;;
57826;SDS011;43656;57.746;11.780;2023-04-09T07:25:20;1.73;;;1.00;;
57826;SDS011;43656;57.746;11.780;2023-04-09T07:27:45;2.53;;;0.90;;
57826;SDS011;43656;57.746;11.780;2023-04-09T07:30:11;2.30;;;0.95;;
57826;SDS011;43656;57.746;11.780;2023-04-09T07:32:36;2.08;;;1.08;;
57826;SDS011;43656;57.746;11.780;2023-04-09T07:35:02;3.75;;;1.20;;
57826;SDS011;43656;57.746;11.780;2023-04-09T07:37:31;2.67;;;1.00;;
57826;SDS011;43656;57.746;11.780;2023-04-09T07:39:56;2.38;;;1.02;;
57826;SDS011;43656;57.746;11.780;2023-04-09T07:42:22;2.83;;;0.90;;
57826;SDS011;43656;57.746;11.780;2023-04-09T07:44:47;3.13;;;1.20;;
57826;SDS011;43656;57.746;11.780;2023-04-09T07:47:13;3.63;;;1.10;;
57826;SDS011;43656;57.746;11.780;2023-04-09T07:49:39;2.65;;;1.10;;
57826;SDS011;43656;57.746;11.780;2023-04-09T07:52:05;1.50;;;0.90;;
57826;SDS011;43656;57.746;11.780;2023-04-09T07:54:30;1.38;;;1.00;;
57826;SDS011;43656;57.746;11.780;2023-04-09T07:56:56;2.92;;;0.93;;
57826;SDS011;43656;57.746;11.780;2023-04-09T07:59:22;1.60;;;1.00;;
57826;SDS011;43656;57.746;11.780;2023-04-09T08:01:48;1.75;;;1.08;;
57826;SDS011;43656;57.746;11.780;2023-04-09T08:04:13;1.83;;;1.15;;
57826;SDS011;43656;57.746;11.780;2023-04-09T08:06:39;1.83;;;1.17;;
57826;SDS011;43656;57.746;11.780;2023-04-09T08:09:05;2.60;;;1.00;;
57826;SDS011;43656;57.746;11.780;2023-04-09T08:11:30;1.70;;;1.00;;
57826;SDS011;43656;57.746;11.780;2023-04-09T08:13:56;2.17;;;1.20;;
57826;SDS011;43656;57.746;11.780;2023-04-09T08:16:22;1.85;;;1.08;;
57826;SDS011;43656;57.746;11.780;2023-04-09T08:18:51;2.22;;;1.50;;
57826;SDS011;43656;57.746;11.780;2023-04-09T08:21:17;3.42;;;1.20;;
57826;SDS011;43656;57.746;11.780;2023-04-09T08:23:44;2.47;;;1.55;;
57826;SDS011;43656;57.746;11.780;2023-04-09T08:26:10;3.22;;;1.33;;
57826;SDS011;43656;57.746;11.780;2023-04-09T08:28:35;3.00;;;1.80;;
57826;SDS011;43656;57.746;11.780;2023-04-09T08:31:01;2.78;;;1.52;;
57826;SDS011;43656;57.746;11.780;2023-04-09T08:33:26;2.65;;;1.60;;
57826;SDS011;43656;57.746;11.780;2023-04-09T08:35:52;2.55;;;1.50;;
57826;SDS011;43656;57.746;11.780;2023-04-09T08:38:18;5.57;;;2.67;;
57826;SDS011;43656;57.746;11.780;2023-04-09T08:40:43;4.07;;;2.17;;
57826;SDS011;43656;57.746;11.780;2023-04-09T08:43:09;6.10;;;1.65;;
57826;SDS011;43656;57.746;11.780;2023-04-09T08:45:42;2.95;;;1.20;;
57826;SDS011;43656;57.746;11.780;2023-04-09T08:48:08;4.68;;;1.42;;
57826;SDS011;43656;57.746;11.780;2023-04-09T08:50:34;1.63;;;1.10;;
57826;SDS011;43656;57.746;11.780;2023-04-09T08:53:01;1.83;;;1.17;;
57826;SDS011;43656;57.746;11.780;2023-04-09T08:55:29;2.55;;;1.33;;
57826;SDS011;43656;57.746;11.780;2023-04-09T08:57:55;3.45;;;1.00;;
57826;SDS011;43656;57.746;11.780;2023-04-09T09:00:22;2.10;;;1.10;;
57826;SDS011;43656;57.746;11.780;2023-04-09T09:05:51;3.00;;;1.00;;
57826;SDS011;43656;57.746;11.780;2023-04-09T09:08:33;3.17;;;1.20;;
57826;SDS011;43656;57.746;11.780;2023-04-09T09:10:59;3.45;;;1.10;;
57826;SDS011;43656;57.746;11.780;2023-04-09T09:13:25;1.90;;;0.80;;
57826;SDS011;43656;57.746;11.780;2023-04-09T09:15:52;2.95;;;1.00;;
57826;SDS011;43656;57.746;11.780;2023-04-09T09:18:20;1.27;;;0.80;;
57826;SDS011;43656;57.746;11.780;2023-04-09T09:21:09;1.33;;;0.77;;
57826;SDS011;43656;57.746;11.780;2023-04-09T09:23:38;2.17;;;0.90;;
57826;SDS011;43656;57.746;11.780;2023-04-09T09:26:16;2.38;;;1.05;;
57826;SDS011;43656;57.746;11.780;2023-04-09T09:28:43;1.38;;;1.00;;
57826;SDS011;43656;57.746;11.780;2023-04-09T09:31:11;2.08;;;0.90;;
57826;SDS011;43656;57.746;11.780;2023-04-09T09:33:37;3.17;;;1.20;;
57826;SDS011;43656;57.746;11.780;2023-04-09T09:36:03;1.40;;;0.73;;
57826;SDS011;43656;57.746;11.780;2023-04-09T09:38:29;3.20;;;1.15;;
57826;SDS011;43656;57.746;11.780;2023-04-09T09:40:55;2.00;;;1.10;;
57826;SDS011;43656;57.746;11.780;2023-04-09T09:43:21;1.80;;;0.85;;
57826;SDS011;43656;57.746;11.780;2023-04-09T09:45:47;3.47;;;1.08;;
57826;SDS011;43656;57.746;11.780;2023-04-09T09:48:13;2.85;;;1.00;;
57826;SDS011;43656;57.746;11.780;2023-04-09T09:50:39;2.00;;;1.10;;
57826;SDS011;43656;57.746;11.780;2023-04-09T09:53:06;1.45;;;0.95;;
57826;SDS011;43656;57.746;11.780;2023-04-09T09:55:37;1.58;;;1.00;;
57826;SDS011;43656;57.746;11.780;2023-04-09T09:58:11;1.30;;;0.80;;
57826;SDS011;43656;57.746;11.780;2023-04-09T10:00:40;1.45;;;1.02;;
57826;SDS011;43656;57.746;11.780;2023-04-09T10:03:11;1.35;;;0.80;;
57826;SDS011;43656;57.746;11.780;2023-04-09T10:05:40;1.00;;;0.75;;
57826;SDS011;43656;57.746;11.780;2023-04-09T10:08:05;3.80;;;1.10;;
57826;SDS011;43656;57.746;11.780;2023-04-09T10:10:32;1.73;;;0.73;;
57826;SDS011;43656;57.746;11.780;2023-04-09T10:12:58;1.17;;;0.80;;
57826;SDS011;43656;57.746;11.780;2023-04-09T10:15:24;1.67;;;0.90;;
57826;SDS011;43656;57.746;11.780;2023-04-09T10:17:50;1.50;;;1.10;;
57826;SDS011;43656;57.746;11.780;2023-04-09T10:20:23;1.92;;;1.00;;
57826;SDS011;43656;57.746;11.780;2023-04-09T10:22:53;1.65;;;1.05;;
57826;SDS011;43656;57.746;11.780;2023-04-09T10:25:19;1.05;;;0.70;;
57826;SDS011;43656;57.746;11.780;2023-04-09T10:27:47;2.83;;;1.15;;
57826;SDS011;43656;57.746;11.780;2023-04-09T10:30:30;2.50;;;1.00;;
57826;SDS011;43656;57.746;11.780;2023-04-09T10:35:39;2.08;;;1.08;;
57826;SDS011;43656;57.746;11.780;2023-04-09T10:38:08;1.88;;;0.90;;
57826;SDS011;43656;57.746;11.780;2023-04-09T10:40:38;1.98;;;1.00;;
57826;SDS011;43656;57.746;11.780;2023-04-09T10:43:17;4.50;;;0.90;;
57826;SDS011;43656;57.746;11.780;2023-04-09T10:45:44;1.48;;;1.00;;
57826;SDS011;43656;57.746;11.780;2023-04-09T10:48:12;2.78;;;1.08;;
57826;SDS011;43656;57.746;11.780;2023-04-09T10:50:38;2.05;;;1.00;;
57826;SDS011;43656;57.746;11.780;2023-04-09T10:53:06;1.63;;;1.00;;
57826;SDS011;43656;57.746;11.780;2023-04-09T10:55:35;3.03;;;1.13;;
57826;SDS011;43656;57.746;11.780;2023-04-09T10:58:05;2.38;;;1.08;;
57826;SDS011;43656;57.746;11.780;2023-04-09T11:01:08;3.17;;;1.05;;
57826;SDS011;43656;57.746;11.780;2023-04-09T11:03:27;1.73;;;0.98;;
57826;SDS011;43656;57.746;11.780;2023-04-09T11:06:02;2.25;;;1.00;;
57826;SDS011;43656;57.746;11.780;2023-04-09T11:08:34;1.75;;;1.10;;
57826;SDS011;43656;57.746;11.780;2023-04-09T11:11:00;2.10;;;1.00;;
57826;SDS011;43656;57.746;11.780;2023-04-09T11:13:27;2.55;;;0.90;;
57826;SDS011;43656;57.746;11.780;2023-04-09T11:15:53;2.58;;;1.30;;
57826;SDS011;43656;57.746;11.780;2023-04-09T11:18:23;3.00;;;1.08;;
57826;SDS011;43656;57.746;11.780;2023-04-09T11:20:56;1.98;;;1.20;;
57826;SDS011;43656;57.746;11.780;2023-04-09T11:23:26;2.42;;;1.08;;
57826;SDS011;43656;57.746;11.780;2023-04-09T11:25:52;2.08;;;1.00;;
57826;SDS011;43656;57.746;11.780;2023-04-09T11:28:18;1.70;;;0.85;;
57826;SDS011;43656;57.746;11.780;2023-04-09T11:30:44;1.77;;;1.10;;
57826;SDS011;43656;57.746;11.780;2023-04-09T11:33:13;0.95;;;0.80;;
57826;SDS011;43656;57.746;11.780;2023-04-09T11:35:38;2.78;;;1.00;;
57826;SDS011;43656;57.746;11.780;2023-04-09T11:38:10;1.25;;;0.80;;
57826;SDS011;43656;57.746;11.780;2023-04-09T11:40:37;3.03;;;1.25;;
57826;SDS011;43656;57.746;11.780;2023-04-09T11:43:15;1.65;;;1.00;;
57826;SDS011;43656;57.746;11.780;2023-04-09T11:45:41;2.20;;;1.00;;
57826;SDS011;43656;57.746;11.780;2023-04-09T11:48:08;2.97;;;0.93;;
57826;SDS011;43656;57.746;11.780;2023-04-09T11:50:34;1.90;;;0.85;;
57826;SDS011;43656;57.746;11.780;2023-04-09T11:53:13;1.67;;;0.80;;
57826;SDS011;43656;57.746;11.780;2023-04-09T11:55:45;1.30;;;0.90;;
57826;SDS011;43656;57.746;11.780;2023-04-09T11:58:11;1.80;;;1.10;;
57826;SDS011;43656;57.746;11.780;2023-04-09T12:00:39;1.95;;;1.00;;
57826;SDS011;43656;57.746;11.780;2023-04-09T12:03:05;3.17;;;1.10;;
57826;SDS011;43656;57.746;11.780;2023-04-09T12:05:31;2.53;;;1.08;;
57826;SDS011;43656;57.746;11.780;2023-04-09T12:07:59;3.85;;;1.08;;
57826;SDS011;43656;57.746;11.780;2023-04-09T12:10:31;1.15;;;0.93;;
57826;SDS011;43656;57.746;11.780;2023-04-09T12:13:16;1.10;;;0.80;;
57826;SDS011;43656;57.746;11.780;2023-04-09T12:15:41;2.17;;;1.00;;
57826;SDS011;43656;57.746;11.780;2023-04-09T12:18:10;1.13;;;1.00;;
57826;SDS011;43656;57.746;11.780;2023-04-09T12:20:37;1.52;;;0.95;;
57826;SDS011;43656;57.746;11.780;2023-04-09T12:23:09;2.30;;;1.10;;
57826;SDS011;43656;57.746;11.780;2023-04-09T12:25:36;1.77;;;0.80;;
57826;SDS011;43656;57.746;11.780;2023-04-09T12:28:04;1.92;;;0.85;;
57826;SDS011;43656;57.746;11.780;2023-04-09T12:30:30;2.70;;;0.93;;
57826;SDS011;43656;57.746;11.780;2023-04-09T12:32:57;1.70;;;1.10;;
57826;SDS011;43656;57.746;11.780;2023-04-09T12:35:23;1.02;;;0.70;;
57826;SDS011;43656;57.746;11.780;2023-04-09T12:37:49;1.65;;;0.88;;
57826;SDS011;43656;57.746;11.780;2023-04-09T12:40:15;2.97;;;0.80;;
57826;SDS011;43656;57.746;11.780;2023-04-09T12:42:41;1.63;;;1.00;;
57826;SDS011;43656;57.746;11.780;2023-04-09T12:45:08;2.63;;;0.90;;
57826;SDS011;43656;57.746;11.780;2023-04-09T12:47:35;1.67;;;1.00;;
57826;SDS011;43656;57.746;11.780;2023-04-09T12:50:01;2.15;;;1.20;;
57826;SDS011;43656;57.746;11.780;2023-04-09T12:52:28;1.00;;;0.77;;
57826;SDS011;43656;57.746;11.780;2023-04-09T12:54:53;0.70;;;0.70;;
57826;SDS011;43656;57.746;11.780;2023-04-09T12:57:19;1.90;;;0.70;;
57826;SDS011;43656;57.746;11.780;2023-04-09T12:59:44;1.13;;;0.65;;
57826;SDS011;43656;57.746;11.780;2023-04-09T13:02:10;1.10;;;0.50;;
57826;SDS011;43656;57.746;11.780;2023-04-09T13:04:35;4.53;;;1.50;;
57826;SDS011;43656;57.746;11.780;2023-04-09T13:07:01;5.50;;;1.63;;
57826;SDS011;43656;57.746;11.780;2023-04-09T13:09:26;2.40;;;1.10;;
57826;SDS011;43656;57.746;11.780;2023-04-09T13:11:51;1.75;;;0.90;;
57826;SDS011;43656;57.746;11.780;2023-04-09T13:14:17;1.80;;;0.95;;
57826;SDS011;43656;57.746;11.780;2023-04-09T13:16:42;1.83;;;1.00;;
57826;SDS011;43656;57.746;11.780;2023-04-09T13:19:08;1.67;;;0.90;;
57826;SDS011;43656;57.746;11.780;2023-04-09T13:21:33;1.40;;;0.90;;
57826;SDS011;43656;57.746;11.780;2023-04-09T13:23:59;1.48;;;1.00;;
57826;SDS011;43656;57.746;11.780;2023-04-09T13:26:25;2.55;;;1.00;;
57826;SDS011;43656;57.746;11.780;2023-04-09T13:28:50;1.25;;;0.80;;
57826;SDS011;43656;57.746;11.780;2023-04-09T13:31:17;2.72;;;1.00;;
57826;SDS011;43656;57.746;11.780;2023-04-09T13:33:42;2.40;;;1.20;;
57826;SDS011;43656;57.746;11.780;2023-04-09T13:36:07;3.35;;;1.30;;
57826;SDS011;43656;57.746;11.780;2023-04-09T13:38:33;2.08;;;1.27;;
57826;SDS011;43656;57.746;11.780;2023-04-09T13:40:58;2.42;;;1.40;;
57826;SDS011;43656;57.746;11.780;2023-04-09T13:43:24;2.22;;;1.50;;
57826;SDS011;43656;57.746;11.780;2023-04-09T13:45:52;2.83;;;1.67;;
57826;SDS011;43656;57.746;11.780;2023-04-09T13:48:18;2.72;;;1.70;;
57826;SDS011;43656;57.746;11.780;2023-04-09T13:50:45;3.05;;;1.60;;
57826;SDS011;43656;57.746;11.780;2023-04-09T13:53:10;2.92;;;1.52;;
57826;SDS011;43656;57.746;11.780;2023-04-09T13:55:35;2.40;;;1.30;;
57826;SDS011;43656;57.746;11.780;2023-04-09T13:58:01;2.03;;;1.35;;
57826;SDS011;43656;57.746;11.780;2023-04-09T14:00:26;2.65;;;1.52;;
57826;SDS011;43656;57.746;11.780;2023-04-09T14:02:52;2.75;;;1.50;;
57826;SDS011;43656;57.746;11.780;2023-04-09T14:05:17;3.25;;;1.45;;
57826;SDS011;43656;57.746;11.780;2023-04-09T14:07:42;3.55;;;1.60;;
57826;SDS011;43656;57.746;11.780;2023-04-09T14:10:08;2.95;;;1.35;;
57826;SDS011;43656;57.746;11.780;2023-04-09T14:12:34;2.53;;;1.50;;
57826;SDS011;43656;57.746;11.780;2023-04-09T14:14:59;2.28;;;1.20;;
57826;SDS011;43656;57.746;11.780;2023-04-09T14:17:25;2.50;;;1.30;;
57826;SDS011;43656;57.746;11.780;2023-04-09T14:19:50;3.08;;;1.48;;
57826;SDS011;43656;57.746;11.780;2023-04-09T14:22:15;1.77;;;1.10;;
57826;SDS011;43656;57.746;11.780;2023-04-09T14:24:41;2.00;;;1.17;;
57826;SDS011;43656;57.746;11.780;2023-04-09T14:27:06;3.28;;;1.45;;
57826;SDS011;43656;57.746;11.780;2023-04-09T14:29:32;5.47;;;1.63;;
57826;SDS011;43656;57.746;11.780;2023-04-09T14:31:58;3.33;;;1.35;;
57826;SDS011;43656;57.746;11.780;2023-04-09T14:34:24;2.90;;;1.52;;
57826;SDS011;43656;57.746;11.780;2023-04-09T14:36:50;1.55;;;1.10;;
57826;SDS011;43656;57.746;11.780;2023-04-09T14:39:15;1.73;;;1.20;;
57826;SDS011;43656;57.746;11.780;2023-04-09T14:41:41;1.40;;;1.27;;